Time;durP1;ratioP1;P1;durP2;ratioP2;P2;SDS_P1;SDS_P2;PMS_P1;PMS_P2;Temp;Humidity;BMP_temperature;BMP_pressure;BME280_temperature;BME280_humidity;BME280_pressure;Samples;Min_cycle;Max_cycle;Signal;HPM_P1;HPM_P2
2021/12/25 00:01:41;;;;;;;24.98;15.88;;;23.60;86.50;;;;;;1912977;74;21161;-77
2021/12/25 00:04:12;;;;;;;23.30;16.00;;;23.60;86.50;;;;;;1913118;75;21184;-76
2021/12/25 00:06:43;;;;;;;23.75;15.48;;;23.50;86.70;;;;;;1918054;75;21166;-77
2021/12/25 00:09:14;;;;;;;20.77;14.03;;;23.50;87.10;;;;;;1915791;75;21411;-77
2021/12/25 00:11:45;;;;;;;19.75;13.55;;;23.50;87.00;;;;;;1919044;75;21075;-77
2021/12/25 00:14:16;;;;;;;19.07;13.15;;;23.50;87.00;;;;;;1919002;74;21107;-77
2021/12/25 00:16:47;;;;;;;19.82;12.60;;;23.50;87.40;;;;;;1923218;74;21158;-77
2021/12/25 00:19:18;;;;;;;20.30;13.75;;;23.50;87.50;;;;;;1919052;74;21143;-76
2021/12/25 00:21:49;;;;;;;21.70;13.55;;;23.50;87.60;;;;;;1914192;74;21104;-77
2021/12/25 00:24:21;;;;;;;18.75;13.98;;;23.50;87.50;;;;;;1918954;75;22176;-77
2021/12/25 00:32:13;;;;;;;22.20;15.60;;;23.50;87.70;;;;;;1923025;74;21190;-77
2021/12/25 00:34:26;;;;;;;29.82;19.02;;;23.50;87.50;;;;;;1933302;74;21202;-77
2021/12/25 00:36:57;;;;;;;34.60;20.80;;;23.50;87.60;;;;;;1924005;74;21159;-77
2021/12/25 00:39:30;;;;;;;33.90;20.12;;;23.60;87.70;;;;;;1917296;74;21154;-77
2021/12/25 00:42:03;;;;;;;30.43;19.55;;;23.70;87.10;;;;;;1922314;74;21107;-77
2021/12/25 00:44:35;;;;;;;28.70;17.85;;;23.70;86.90;;;;;;1919916;74;21559;-78
2021/12/25 00:47:07;;;;;;;28.27;17.60;;;23.70;86.90;;;;;;1908260;74;21143;-78
2021/12/25 00:49:39;;;;;;;36.90;22.42;;;23.70;86.50;;;;;;1919349;74;21095;-77
2021/12/25 00:52:09;;;;;;;35.20;23.25;;;23.80;86.70;;;;;;1913351;74;21147;-77
2021/12/25 00:54:41;;;;;;;34.55;22.87;;;23.80;87.00;;;;;;1916767;75;21056;-77
2021/12/25 00:57:12;;;;;;;29.80;21.05;;;23.70;87.20;;;;;;1907525;74;21740;-78
2021/12/25 00:59:43;;;;;;;32.42;21.15;;;23.70;87.80;;;;;;1849841;75;21129;-78
2021/12/25 01:02:14;;;;;;;30.50;21.05;;;23.70;87.20;;;;;;1877806;75;21626;-72
2021/12/25 01:04:45;;;;;;;31.37;21.60;;;23.70;86.90;;;;;;1876351;75;21156;-72
2021/12/25 01:07:16;;;;;;;30.92;18.27;;;23.70;87.20;;;;;;1847061;76;21724;-71
2021/12/25 01:09:49;;;;;;;30.25;19.32;;;23.70;87.10;;;;;;1874525;75;22309;-72
2021/12/25 01:12:20;;;;;;;28.90;18.77;;;23.80;87.10;;;;;;1899900;75;21734;-72
2021/12/25 01:14:56;;;;;;;29.48;19.35;;;23.80;87.10;;;;;;1838396;78;21683;-72
2021/12/25 01:25:20;;;;;;;23.20;16.87;;;23.90;86.70;;;;;;1884325;75;21539;-71
2021/12/25 01:27:59;;;;;;;30.97;18.98;;;24.00;85.00;;;;;;1873019;76;21173;-71
2021/12/25 01:47:52;;;;;;;22.22;15.15;;;24.40;83.70;;;;;;1874949;76;21710;-70
2021/12/25 01:50:26;;;;;;;22.82;14.68;;;24.40;83.50;;;;;;1876288;75;21186;-73
2021/12/25 01:53:00;;;;;;;23.60;15.13;;;24.40;84.60;;;;;;1837151;78;21177;-72
2021/12/25 01:55:32;;;;;;;18.85;13.35;;;24.60;83.30;;;;;;1857247;76;21155;-72
2021/12/25 01:58:04;;;;;;;22.13;11.95;;;24.60;83.60;;;;;;1838717;77;21689;-72
2021/12/25 02:00:38;;;;;;;14.50;10.80;;;24.70;83.40;;;;;;1873114;75;21126;-72
2021/12/25 02:03:11;;;;;;;13.18;9.20;;;24.70;83.30;;;;;;1883840;75;21156;-72
2021/12/25 02:05:41;;;;;;;13.32;9.03;;;24.80;83.10;;;;;;1882314;75;21077;-72
2021/12/25 02:08:15;;;;;;;13.65;8.60;;;24.80;82.90;;;;;;1869966;76;21090;-70
2021/12/25 02:10:46;;;;;;;13.18;9.10;;;24.80;82.60;;;;;;1874941;75;21107;-72
2021/12/25 02:13:17;;;;;;;11.43;8.48;;;24.90;82.30;;;;;;1875418;75;21112;-72
2021/12/25 02:15:51;;;;;;;12.33;9.20;;;24.90;82.20;;;;;;1870195;75;21620;-70
2021/12/25 02:21:08;;;;;;;13.72;9.90;;;25.00;82.20;;;;;;1868256;76;21598;-70
2021/12/25 02:23:26;;;;;;;13.68;9.48;;;25.00;82.00;;;;;;1868887;75;21099;-70
2021/12/25 02:25:59;;;;;;;11.90;8.30;;;25.00;81.80;;;;;;1867124;75;21128;-70
2021/12/25 02:28:30;;;;;;;10.90;7.78;;;25.10;81.70;;;;;;1877888;75;21088;-70
2021/12/25 02:31:03;;;;;;;12.93;8.53;;;25.10;81.60;;;;;;1872938;75;21646;-71
2021/12/25 02:33:34;;;;;;;12.10;8.05;;;25.10;81.50;;;;;;1873350;76;21567;-71
2021/12/25 02:36:06;;;;;;;16.02;8.80;;;25.20;81.30;;;;;;1869116;76;21114;-71
2021/12/25 02:38:37;;;;;;;10.32;8.20;;;25.20;81.20;;;;;;1875715;75;21644;-71
2021/12/25 02:41:09;;;;;;;13.45;8.28;;;25.20;81.20;;;;;;1877887;75;21108;-72
2021/12/25 02:43:43;;;;;;;12.07;9.33;;;25.30;81.10;;;;;;1879838;75;21591;-72
2021/12/25 02:46:14;;;;;;;12.63;8.90;;;25.30;80.60;;;;;;1878205;75;21226;-73
2021/12/25 02:48:45;;;;;;;15.88;10.20;;;25.40;80.60;;;;;;1809347;78;21164;-71
2021/12/25 02:51:15;;;;;;;12.30;9.20;;;25.40;80.60;;;;;;1880527;75;21171;-71
2021/12/25 02:53:46;;;;;;;12.07;9.43;;;25.50;79.70;;;;;;1860859;76;21607;-71
2021/12/25 02:56:17;;;;;;;11.88;8.68;;;25.60;80.50;;;;;;1885120;75;21167;-71
2021/12/25 02:58:47;;;;;;;13.05;8.58;;;25.60;80.20;;;;;;1890395;75;21176;-72
2021/12/25 03:01:21;;;;;;;12.85;8.45;;;25.70;79.70;;;;;;1839883;77;21131;-72
2021/12/25 03:03:52;;;;;;;14.85;8.83;;;25.80;79.60;;;;;;1841563;76;21163;-70
2021/12/25 03:06:25;;;;;;;14.00;9.98;;;25.80;79.30;;;;;;1840032;76;21210;-71
2021/12/25 03:08:55;;;;;;;16.15;10.40;;;25.90;79.30;;;;;;1842139;77;21742;-71
2021/12/25 03:11:26;;;;;;;14.25;9.65;;;25.90;79.40;;;;;;1848210;76;21647;-71
2021/12/25 03:14:32;;;;;;;15.23;9.98;;;26.00;79.20;;;;;;1834687;78;21694;-71
2021/12/25 03:16:48;;;;;;;14.63;9.30;;;26.00;78.80;;;;;;1859997;76;21737;-71
2021/12/25 03:19:27;;;;;;;14.03;9.83;;;26.10;78.70;;;;;;1856873;76;21658;-71
2021/12/25 03:21:51;;;;;;;13.45;9.13;;;26.10;78.40;;;;;;1854969;76;21224;-70
2021/12/25 03:24:21;;;;;;;12.13;8.48;;;26.20;78.40;;;;;;1856390;76;21166;-71
2021/12/25 03:26:55;;;;;;;11.70;8.68;;;26.20;78.10;;;;;;1854419;76;21649;-70
2021/12/25 03:29:25;;;;;;;13.08;8.58;;;26.30;77.80;;;;;;1851967;76;21123;-70
2021/12/25 03:31:56;;;;;;;15.65;9.90;;;26.40;77.60;;;;;;1852651;76;21678;-71
2021/12/25 03:34:27;;;;;;;14.30;9.90;;;26.40;77.50;;;;;;1852430;76;21150;-71
2021/12/25 03:36:58;;;;;;;20.12;10.38;;;26.50;77.30;;;;;;1857734;76;21542;-72
2021/12/25 03:39:29;;;;;;;16.90;11.30;;;26.50;77.10;;;;;;1855044;76;21189;-72
2021/12/25 03:42:00;;;;;;;17.05;11.35;;;26.60;77.10;;;;;;1853407;76;21166;-70
2021/12/25 03:44:32;;;;;;;22.13;12.58;;;26.70;76.70;;;;;;1854131;76;21253;-72
2021/12/25 03:47:12;;;;;;;17.55;12.43;;;26.70;76.20;;;;;;1853164;76;21760;-72
2021/12/25 03:53:07;;;;;;;12.23;7.85;;;26.80;76.30;;;;;;1855042;76;21162;-72
2021/12/25 03:59:53;;;;;;;11.10;8.85;;;27.10;74.60;;;;;;1814674;78;21653;-72
2021/12/25 04:02:24;;;;;;;11.95;7.85;;;27.20;74.40;;;;;;1816771;78;21156;-72
2021/12/25 04:04:51;;;;;;;9.83;7.67;;;27.30;74.30;;;;;;1860817;76;21236;-71
2021/12/25 04:07:49;;;;;;;12.45;8.00;;;27.40;73.50;;;;;;1854213;76;21205;-71
2021/12/25 04:09:59;;;;;;;10.13;7.45;;;27.50;72.90;;;;;;1856761;76;21186;-72
2021/12/25 04:12:26;;;;;;;13.50;7.70;;;27.60;72.80;;;;;;1856207;76;21641;-71
2021/12/25 04:14:57;;;;;;;11.95;7.83;;;27.60;72.50;;;;;;1859796;76;21171;-70
2021/12/25 04:17:28;;;;;;;13.88;8.70;;;27.70;72.60;;;;;;1816827;77;21119;-69
2021/12/25 04:20:02;;;;;;;10.68;8.40;;;27.90;72.40;;;;;;1811287;78;21663;-71
2021/12/25 04:22:42;;;;;;;17.73;13.80;;;28.00;71.40;;;;;;1811400;78;21117;-72
2021/12/25 04:25:03;;;;;;;22.58;19.35;;;28.00;71.30;;;;;;1824389;77;21169;-72
2021/12/25 04:27:34;;;;;;;19.57;16.37;;;28.10;71.10;;;;;;1821637;78;21569;-72
2021/12/25 04:30:18;;;;;;;42.40;31.52;;;28.20;70.90;;;;;;1815305;77;21143;-72
2021/12/25 04:33:13;;;;;;;31.97;25.35;;;28.30;70.60;;;;;;1807872;77;21616;-72
2021/12/25 05:05:42;;;;;;;14.70;10.20;;;28.70;68.70;;;;;;1814876;78;21191;-72
2021/12/25 05:08:15;;;;;;;10.10;7.90;;;28.80;68.10;;;;;;1831433;77;21162;-71
2021/12/25 05:10:49;;;;;;;9.73;6.90;;;28.90;68.60;;;;;;1810580;76;21125;-71
2021/12/25 05:13:20;;;;;;;9.70;7.45;;;28.90;67.70;;;;;;1807648;78;21946;-71
2021/12/25 05:15:56;;;;;;;10.70;7.20;;;28.90;67.20;;;;;;1831346;76;21127;-71
2021/12/25 05:18:27;;;;;;;11.20;8.30;;;28.90;67.10;;;;;;1871884;76;21170;-71
2021/12/25 05:20:58;;;;;;;12.28;8.48;;;28.80;67.50;;;;;;1856651;76;21656;-70
2021/12/25 05:23:29;;;;;;;10.50;7.30;;;28.70;67.90;;;;;;1854188;76;21614;-71
2021/12/25 05:26:00;;;;;;;12.63;8.63;;;28.60;68.80;;;;;;1866679;76;21209;-71
2021/12/25 05:28:39;;;;;;;13.75;9.33;;;28.60;68.00;;;;;;1869839;76;21445;-71
2021/12/25 05:31:03;;;;;;;11.68;8.28;;;28.60;68.00;;;;;;1815308;78;21573;-70
2021/12/25 05:33:35;;;;;;;12.68;8.20;;;28.70;67.70;;;;;;1850136;76;21239;-70
2021/12/25 05:36:08;;;;;;;20.45;14.90;;;28.80;67.20;;;;;;1790719;79;21243;-71
2021/12/25 05:38:38;;;;;;;22.85;18.20;;;29.00;67.60;;;;;;1838777;78;21238;-71
2021/12/25 05:41:11;;;;;;;27.67;23.00;;;29.30;65.00;;;;;;1816013;78;21108;-72
2021/12/25 05:43:41;;;;;;;18.52;14.38;;;29.30;65.60;;;;;;1827236;78;21203;-72
2021/12/25 05:46:12;;;;;;;13.40;9.48;;;29.40;65.90;;;;;;1820195;78;21094;-71
2021/12/25 05:48:45;;;;;;;10.85;8.48;;;29.40;65.20;;;;;;1827238;76;21187;-71
2021/12/25 05:51:15;;;;;;;9.58;8.23;;;29.50;64.70;;;;;;1823899;78;21180;-71
2021/12/25 05:53:47;;;;;;;9.75;8.03;;;29.50;65.70;;;;;;1819488;78;21097;-71
2021/12/25 05:56:17;;;;;;;11.25;7.80;;;29.60;64.80;;;;;;1792087;78;21113;-71
2021/12/25 05:58:48;;;;;;;12.35;8.13;;;29.60;64.40;;;;;;1828915;78;21168;-71
2021/12/25 06:01:20;;;;;;;12.70;7.92;;;29.60;64.30;;;;;;1828765;78;21128;-71
2021/12/25 06:03:51;;;;;;;12.75;7.85;;;29.70;64.40;;;;;;1826957;78;21713;-71
2021/12/25 06:06:25;;;;;;;9.13;7.28;;;29.70;64.60;;;;;;1827627;78;21143;-72
2021/12/25 06:08:58;;;;;;;10.82;7.42;;;29.80;65.40;;;;;;1829432;78;21069;-71
2021/12/25 06:11:31;;;;;;;12.88;8.23;;;29.80;63.70;;;;;;1827991;78;21922;-71
2021/12/25 06:14:17;;;;;;;9.95;7.40;;;29.70;63.40;;;;;;1840723;76;21246;-70
2021/12/25 06:16:33;;;;;;;11.40;7.30;;;29.60;63.60;;;;;;1827945;77;21765;-71
2021/12/25 06:19:05;;;;;;;10.45;6.42;;;29.50;63.90;;;;;;1793374;79;21167;-72
2021/12/25 06:21:37;;;;;;;9.63;6.97;;;29.40;64.20;;;;;;1791142;79;21159;-71
2021/12/25 06:24:07;;;;;;;10.72;6.60;;;29.40;64.40;;;;;;1804447;79;21133;-72
2021/12/25 06:26:39;;;;;;;10.75;5.85;;;29.40;64.40;;;;;;1791395;79;21061;-71
2021/12/25 06:29:14;;;;;;;8.95;6.35;;;29.40;64.10;;;;;;1800952;79;21686;-69
2021/12/25 06:31:43;;;;;;;8.88;5.90;;;29.30;64.40;;;;;;1801292;79;21603;-71
2021/12/25 06:34:14;;;;;;;7.20;5.33;;;29.20;64.80;;;;;;1794123;79;21669;-70
2021/12/25 06:36:45;;;;;;;9.50;5.25;;;29.20;64.90;;;;;;1796232;79;21085;-69
2021/12/25 06:39:16;;;;;;;7.83;5.60;;;29.10;64.50;;;;;;1799634;79;21175;-69
2021/12/25 06:41:47;;;;;;;7.08;5.70;;;29.20;64.90;;;;;;1794897;79;21256;-70
2021/12/25 06:44:20;;;;;;;10.58;7.28;;;29.20;65.00;;;;;;1792620;79;21155;-69
2021/12/25 06:46:51;;;;;;;9.10;6.60;;;29.10;65.20;;;;;;1798372;78;21647;-70
2021/12/25 06:49:23;;;;;;;8.53;6.37;;;29.10;64.60;;;;;;1791744;79;21084;-70
2021/12/25 06:51:54;;;;;;;8.48;6.62;;;29.10;65.10;;;;;;1773891;80;21595;-69
2021/12/25 06:54:25;;;;;;;10.13;6.28;;;29.10;65.30;;;;;;1806931;79;21167;-70
2021/12/25 06:56:56;;;;;;;10.23;6.53;;;29.10;65.40;;;;;;1809147;79;21595;-70
2021/12/25 06:59:27;;;;;;;9.55;6.10;;;29.00;65.30;;;;;;1798313;79;21572;-70
2021/12/25 07:01:58;;;;;;;10.82;6.00;;;29.00;65.50;;;;;;1792648;79;21159;-69
2021/12/25 07:04:30;;;;;;;10.65;5.65;;;29.00;65.70;;;;;;1800087;79;21121;-70
2021/12/25 07:07:00;;;;;;;13.43;9.85;;;29.00;65.40;;;;;;1800454;79;21148;-70
2021/12/25 07:09:31;;;;;;;13.08;7.15;;;29.10;65.10;;;;;;1794710;79;21229;-70
2021/12/25 07:12:02;;;;;;;12.25;7.60;;;29.20;64.50;;;;;;1782924;79;21616;-70
2021/12/25 07:14:33;;;;;;;9.23;6.25;;;29.20;64.80;;;;;;1792269;79;21183;-69
2021/12/25 07:17:04;;;;;;;7.85;5.55;;;29.20;64.70;;;;;;1755152;79;21105;-70
2021/12/25 07:19:35;;;;;;;12.93;5.15;;;29.20;64.90;;;;;;1797994;77;21175;-70
2021/12/25 07:22:05;;;;;;;8.30;5.85;;;29.10;64.20;;;;;;1793682;79;21158;-70
2021/12/25 07:24:36;;;;;;;10.48;5.78;;;29.10;64.40;;;;;;1788503;79;21154;-72
2021/12/25 07:27:07;;;;;;;12.85;6.25;;;29.10;64.90;;;;;;1790433;79;21739;-72
2021/12/25 07:29:38;;;;;;;11.08;6.70;;;29.10;65.00;;;;;;1799032;79;21198;-72
2021/12/25 07:32:09;;;;;;;10.63;7.20;;;29.10;65.30;;;;;;1814992;77;21112;-72
2021/12/25 07:34:40;;;;;;;13.90;6.90;;;29.10;65.60;;;;;;1807821;78;21619;-72
2021/12/25 07:37:10;;;;;;;9.45;6.25;;;29.20;65.40;;;;;;1789741;79;21288;-72
2021/12/25 07:39:43;;;;;;;9.95;6.33;;;29.20;64.80;;;;;;1781660;79;21141;-72
2021/12/25 07:42:14;;;;;;;10.63;6.42;;;29.20;64.90;;;;;;1786663;79;21583;-71
2021/12/25 07:44:46;;;;;;;13.05;6.37;;;29.20;65.00;;;;;;1788310;79;21119;-71
2021/12/25 07:47:21;;;;;;;11.25;7.12;;;29.10;64.80;;;;;;1795933;79;21163;-71
2021/12/25 07:49:51;;;;;;;9.40;6.90;;;29.10;65.10;;;;;;1783673;79;21159;-71
2021/12/25 07:52:22;;;;;;;8.75;7.00;;;29.10;65.20;;;;;;1803504;79;21230;-71
2021/12/25 07:54:53;;;;;;;10.82;6.28;;;29.10;65.20;;;;;;1798009;79;21448;-71
2021/12/25 07:57:24;;;;;;;13.83;6.72;;;29.20;65.10;;;;;;1798431;79;21229;-71
2021/12/25 07:59:55;;;;;;;9.50;6.03;;;29.20;64.90;;;;;;1798825;79;21655;-72
2021/12/25 08:02:26;;;;;;;9.23;6.33;;;29.20;64.90;;;;;;1796801;79;21587;-71
2021/12/25 08:04:57;;;;;;;9.23;6.08;;;29.20;65.20;;;;;;1793145;79;21100;-72
2021/12/25 08:07:29;;;;;;;8.78;6.05;;;29.20;65.40;;;;;;1739863;82;21256;-80
2021/12/25 08:12:33;;;;;;;7.87;4.97;;;29.10;65.80;;;;;;1780136;80;21104;-80
2021/12/25 08:15:04;;;;;;;10.00;5.35;;;29.00;65.70;;;;;;1795497;78;21154;-80
2021/12/25 08:17:35;;;;;;;9.28;5.05;;;29.00;66.00;;;;;;1800139;79;21167;-79
2021/12/25 08:20:06;;;;;;;8.75;5.87;;;29.00;65.90;;;;;;1796134;78;21064;-80
2021/12/25 08:22:38;;;;;;;9.80;6.58;;;28.90;66.20;;;;;;1819062;78;21151;-80
2021/12/25 08:25:11;;;;;;;12.53;6.60;;;28.90;66.30;;;;;;1823511;78;21160;-78
2021/12/25 08:27:44;;;;;;;7.72;5.72;;;28.90;66.00;;;;;;1828306;78;21132;-78
2021/12/25 08:30:17;;;;;;;7.90;5.58;;;29.00;66.20;;;;;;1825123;78;21153;-80
2021/12/25 08:32:51;;;;;;;7.90;5.20;;;29.00;65.70;;;;;;1822286;78;21210;-80
2021/12/25 08:35:21;;;;;;;6.42;4.85;;;28.90;65.70;;;;;;1819898;78;21168;-79
2021/12/25 08:37:52;;;;;;;9.05;5.55;;;28.90;65.50;;;;;;1821288;78;21121;-80
2021/12/25 08:40:25;;;;;;;9.68;5.37;;;28.90;65.80;;;;;;1761492;80;21142;-79
2021/12/25 08:43:01;;;;;;;8.83;5.62;;;28.90;66.00;;;;;;1795830;79;21254;-79
2021/12/25 08:48:08;;;;;;;9.58;5.75;;;28.80;66.40;;;;;;1753246;80;21214;-79
2021/12/25 08:50:40;;;;;;;10.43;5.75;;;28.80;66.60;;;;;;1827581;78;21214;-78
2021/12/25 08:53:11;;;;;;;8.95;5.47;;;28.80;66.70;;;;;;1822489;78;21081;-80
2021/12/25 08:55:43;;;;;;;10.35;6.25;;;28.80;66.80;;;;;;1824705;78;21663;-78
2021/12/25 08:58:24;;;;;;;11.38;5.70;;;28.80;67.00;;;;;;1836586;78;21078;-79
2021/12/25 09:01:00;;;;;;;11.08;5.90;;;28.80;66.90;;;;;;1917339;74;21111;-79
2021/12/25 09:03:32;;;;;;;10.35;7.22;;;28.80;66.90;;;;;;1935465;74;21205;-79
2021/12/25 09:06:03;;;;;;;9.43;6.60;;;28.70;67.20;;;;;;1935516;74;21186;-79
2021/12/25 09:08:34;;;;;;;12.95;6.75;;;28.70;66.60;;;;;;1935572;74;21206;-79
2021/12/25 09:11:05;;;;;;;13.05;6.87;;;28.80;67.10;;;;;;1935587;74;21097;-80
2021/12/25 09:13:37;;;;;;;10.90;7.00;;;28.80;67.10;;;;;;1924875;74;21036;-79
2021/12/25 09:16:08;;;;;;;10.98;8.15;;;28.80;67.20;;;;;;1908273;74;21095;-80
2021/12/25 09:18:39;;;;;;;13.30;8.65;;;28.80;67.40;;;;;;1935337;74;21040;-79
2021/12/25 09:21:11;;;;;;;17.15;8.90;;;28.80;67.60;;;;;;1904879;72;21117;-80
2021/12/25 09:23:42;;;;;;;12.23;7.50;;;28.90;67.50;;;;;;1924482;74;21063;-79
2021/12/25 09:26:14;;;;;;;9.63;6.62;;;28.90;67.40;;;;;;1918899;74;21147;-80
2021/12/25 09:28:46;;;;;;;13.03;7.17;;;28.90;67.10;;;;;;1923403;74;21076;-79
2021/12/25 09:31:17;;;;;;;9.23;6.33;;;28.90;67.20;;;;;;1929479;74;21677;-79
2021/12/25 09:33:49;;;;;;;9.78;6.30;;;28.90;67.00;;;;;;1922348;74;21596;-80
2021/12/25 09:36:21;;;;;;;9.00;6.20;;;28.90;66.80;;;;;;1932000;74;21062;-79
2021/12/25 09:38:52;;;;;;;10.15;7.35;;;28.90;66.90;;;;;;1924701;74;21167;-80
2021/12/25 09:41:23;;;;;;;11.20;7.28;;;28.90;66.70;;;;;;1923392;74;21547;-81
2021/12/25 09:43:54;;;;;;;12.00;7.15;;;28.90;66.90;;;;;;1922015;74;21700;-81
2021/12/25 09:46:25;;;;;;;11.50;6.97;;;28.90;66.90;;;;;;1919186;74;21143;-80
2021/12/25 09:48:56;;;;;;;14.18;6.75;;;28.80;66.80;;;;;;1921035;74;21223;-79
2021/12/25 09:51:27;;;;;;;9.35;6.97;;;28.80;67.00;;;;;;1923705;74;21126;-80
2021/12/25 09:54:01;;;;;;;13.08;7.62;;;28.80;67.10;;;;;;1922547;74;21155;-81
2021/12/25 09:56:32;;;;;;;13.62;8.53;;;28.70;67.20;;;;;;1927173;73;21122;-80
2021/12/25 09:59:04;;;;;;;14.15;8.43;;;28.70;67.40;;;;;;1911801;73;21688;-81
2021/12/25 10:01:38;;;;;;;12.93;9.00;;;28.70;67.60;;;;;;1949932;73;21051;-80
2021/12/25 10:04:11;;;;;;;14.73;8.53;;;28.60;67.60;;;;;;1951350;73;21095;-80
2021/12/25 10:06:44;;;;;;;14.45;8.83;;;28.60;67.90;;;;;;1951484;73;22057;-79
2021/12/25 10:09:18;;;;;;;11.20;7.40;;;28.50;67.80;;;;;;1924819;73;21863;-79
2021/12/25 10:11:51;;;;;;;12.03;7.62;;;28.50;67.90;;;;;;1951636;73;22438;-80
2021/12/25 10:14:21;;;;;;;12.20;7.35;;;28.50;68.00;;;;;;1948601;73;21126;-80
2021/12/25 10:16:53;;;;;;;11.68;7.78;;;28.50;68.20;;;;;;1950902;73;21154;-80
2021/12/25 10:19:31;;;;;;;12.28;8.75;;;28.40;68.50;;;;;;1930381;73;21145;-78
2021/12/25 10:22:00;;;;;;;14.30;8.70;;;28.40;68.80;;;;;;1944445;73;21127;-79
2021/12/25 10:24:37;;;;;;;12.50;8.83;;;28.40;68.90;;;;;;1949661;73;21572;-80
2021/12/25 10:27:05;;;;;;;18.25;11.00;;;28.40;68.90;;;;;;1949163;73;21194;-80
2021/12/25 10:29:36;;;;;;;13.90;9.63;;;28.30;68.90;;;;;;1944834;72;21071;-80
2021/12/25 10:32:10;;;;;;;17.07;9.60;;;28.30;69.10;;;;;;1947160;73;21130;-79
2021/12/25 10:34:41;;;;;;;15.85;10.48;;;28.30;69.30;;;;;;1947807;72;21134;-80
2021/12/25 10:37:14;;;;;;;17.32;10.88;;;28.20;69.30;;;;;;1942874;73;21586;-79
2021/12/25 10:39:46;;;;;;;14.55;9.70;;;28.20;70.00;;;;;;1951107;73;21168;-79
2021/12/25 10:42:20;;;;;;;13.25;10.08;;;28.20;69.70;;;;;;1949717;72;21106;-79
2021/12/25 10:44:54;;;;;;;14.83;11.15;;;28.10;69.70;;;;;;1950967;73;21094;-79
2021/12/25 10:47:27;;;;;;;13.75;10.38;;;28.10;69.90;;;;;;1948656;73;21118;-73
2021/12/25 10:50:02;;;;;;;18.55;10.95;;;28.00;70.10;;;;;;1940006;73;21122;-75
2021/12/25 10:52:41;;;;;;;17.17;10.70;;;28.00;70.20;;;;;;1940860;73;21855;-75
2021/12/25 10:55:10;;;;;;;14.85;10.23;;;28.00;70.40;;;;;;1939400;73;21067;-79
2021/12/25 10:57:43;;;;;;;15.30;10.50;;;28.00;70.40;;;;;;1948156;72;21110;-78
2021/12/25 11:00:16;;;;;;;17.60;11.90;;;28.00;70.70;;;;;;1947370;73;21590;-78
2021/12/25 11:02:49;;;;;;;21.90;10.80;;;27.90;70.90;;;;;;1931742;74;21125;-78
2021/12/25 11:05:22;;;;;;;19.95;11.60;;;27.90;71.00;;;;;;1934834;74;21091;-79
2021/12/25 11:07:55;;;;;;;18.98;13.83;;;27.90;71.20;;;;;;1934311;74;21050;-78
2021/12/25 11:10:26;;;;;;;18.07;12.80;;;27.80;71.40;;;;;;1931049;74;21220;-78
2021/12/25 11:12:57;;;;;;;18.52;13.55;;;27.80;71.50;;;;;;1933854;74;21067;-78
2021/12/25 11:15:30;;;;;;;20.50;15.10;;;27.80;71.60;;;;;;1937062;74;21177;-78
2021/12/25 11:18:06;;;;;;;24.60;16.02;;;27.70;71.80;;;;;;1934857;74;21597;-77
2021/12/25 11:20:35;;;;;;;24.05;14.58;;;27.70;72.00;;;;;;1936240;74;21097;-79
2021/12/25 11:23:09;;;;;;;20.40;14.80;;;27.70;72.20;;;;;;1912895;74;21213;-79
2021/12/25 11:25:42;;;;;;;19.92;14.20;;;27.70;72.20;;;;;;1936816;74;21127;-78
2021/12/25 11:28:18;;;;;;;28.50;18.48;;;27.70;72.50;;;;;;1923479;74;21078;-78
2021/12/25 11:30:50;;;;;;;27.02;19.20;;;27.60;72.60;;;;;;1929943;74;21131;-78
2021/12/25 11:33:21;;;;;;;25.40;18.48;;;27.60;73.00;;;;;;1938472;74;21053;-78
2021/12/25 11:35:52;;;;;;;32.67;20.27;;;27.60;73.00;;;;;;1937637;74;21158;-78
2021/12/25 11:38:23;;;;;;;28.30;18.55;;;27.60;73.40;;;;;;1938331;74;21146;-78
2021/12/25 11:40:55;;;;;;;27.05;18.82;;;27.60;73.40;;;;;;1938383;74;21121;-78
2021/12/25 11:43:28;;;;;;;36.00;20.88;;;27.50;73.30;;;;;;1938448;74;21117;-78
2021/12/25 11:45:59;;;;;;;40.28;20.72;;;27.50;73.40;;;;;;1936811;74;21118;-78
2021/12/25 11:48:30;;;;;;;63.83;34.88;;;27.50;73.80;;;;;;1935058;74;21079;-78
2021/12/25 11:51:01;;;;;;;57.73;33.55;;;27.40;73.80;;;;;;1929952;74;21474;-79
2021/12/25 11:58:41;;;;;;;37.65;20.45;;;27.40;74.40;;;;;;1937465;74;21594;-79
2021/12/25 12:01:14;;;;;;;31.33;18.92;;;27.30;74.10;;;;;;1920073;74;21637;-79
2021/12/25 12:03:52;;;;;;;29.60;19.95;;;27.30;74.30;;;;;;1915037;74;21153;-78
2021/12/25 12:06:21;;;;;;;30.68;19.12;;;27.30;74.40;;;;;;1934111;73;21103;-79
2021/12/25 12:08:54;;;;;;;25.72;18.67;;;27.30;74.40;;;;;;1930877;74;21178;-79
2021/12/25 12:11:27;;;;;;;25.65;16.90;;;27.30;74.40;;;;;;1934044;73;21159;-79
2021/12/25 12:14:00;;;;;;;28.25;17.70;;;27.30;74.60;;;;;;1934155;74;21232;-78
2021/12/25 12:16:35;;;;;;;24.10;15.75;;;27.30;74.70;;;;;;1916116;74;21124;-78
2021/12/25 12:19:26;;;;;;;27.27;15.58;;;27.20;74.60;;;;;;1933102;73;21436;-78
2021/12/25 12:21:58;;;;;;;22.40;13.75;;;27.20;74.80;;;;;;1807891;79;21236;-78
2021/12/25 12:27:04;;;;;;;21.97;13.40;;;27.20;74.90;;;;;;1830004;78;21202;-79
2021/12/25 12:29:37;;;;;;;19.80;12.33;;;27.10;75.20;;;;;;1825281;78;21173;-79
2021/12/25 12:32:10;;;;;;;20.50;14.00;;;27.10;75.60;;;;;;1780992;80;21167;-78
2021/12/25 12:34:42;;;;;;;20.55;11.97;;;27.10;75.50;;;;;;1819446;77;21615;-78
2021/12/25 12:37:16;;;;;;;20.70;11.60;;;27.00;75.40;;;;;;1813644;79;21216;-78
2021/12/25 12:39:47;;;;;;;18.87;11.08;;;27.00;75.20;;;;;;1779967;80;21628;-78
2021/12/25 12:42:18;;;;;;;18.80;11.35;;;27.00;75.80;;;;;;1823967;78;21242;-79
2021/12/25 12:44:53;;;;;;;17.40;11.53;;;27.00;76.20;;;;;;1823560;78;21089;-78
2021/12/25 12:47:24;;;;;;;20.77;11.38;;;26.90;76.00;;;;;;1825516;78;21226;-79
2021/12/25 12:49:57;;;;;;;20.32;10.95;;;26.90;76.20;;;;;;1819828;78;21607;-78
2021/12/25 12:52:29;;;;;;;17.07;10.72;;;26.90;76.30;;;;;;1824741;78;21082;-80
2021/12/25 12:55:01;;;;;;;16.82;10.78;;;26.90;76.00;;;;;;1825239;78;21077;-79
2021/12/25 12:57:34;;;;;;;18.55;10.55;;;26.90;76.30;;;;;;1825680;78;21235;-79
2021/12/25 13:00:07;;;;;;;14.65;10.13;;;26.80;77.00;;;;;;1821479;78;21778;-78
2021/12/25 13:02:42;;;;;;;20.10;10.45;;;26.80;76.40;;;;;;1824552;78;21651;-78
2021/12/25 13:05:17;;;;;;;26.42;11.22;;;26.80;76.30;;;;;;1821920;78;21163;-79
2021/12/25 13:07:50;;;;;;;18.40;11.22;;;26.80;76.20;;;;;;1830446;78;21604;-79
2021/12/25 13:10:32;;;;;;;18.15;9.35;;;26.70;76.40;;;;;;1825877;78;21178;-79
2021/12/25 13:12:57;;;;;;;15.70;9.63;;;26.80;76.70;;;;;;1816510;78;21226;-79
2021/12/25 13:15:32;;;;;;;15.75;9.70;;;26.70;76.60;;;;;;1829464;77;21766;-78
2021/12/25 13:18:03;;;;;;;18.05;9.53;;;26.70;76.20;;;;;;1829499;77;21069;-78
2021/12/25 13:20:36;;;;;;;17.77;10.45;;;26.70;76.80;;;;;;1819646;78;21165;-79
2021/12/25 13:23:14;;;;;;;14.03;10.18;;;26.70;77.00;;;;;;1792989;79;21617;-79
2021/12/25 13:25:47;;;;;;;15.32;9.55;;;26.70;77.60;;;;;;1774810;81;21226;-79
2021/12/25 13:28:19;;;;;;;13.65;9.80;;;26.70;77.10;;;;;;1812563;79;21613;-78
2021/12/25 13:30:55;;;;;;;18.05;10.75;;;26.60;77.00;;;;;;1798023;79;21204;-78
2021/12/25 13:33:29;;;;;;;17.52;11.22;;;26.60;77.10;;;;;;1780443;79;21670;-78
2021/12/25 13:36:05;;;;;;;16.02;10.23;;;26.60;77.50;;;;;;1790512;79;21170;-78
2021/12/25 13:38:41;;;;;;;15.60;10.45;;;26.60;77.40;;;;;;1791919;79;21130;-79
2021/12/25 13:41:10;;;;;;;21.90;10.45;;;26.60;77.60;;;;;;1811827;79;21228;-78
2021/12/25 13:44:01;;;;;;;19.15;11.60;;;26.60;77.40;;;;;;1777062;79;21178;-78
2021/12/25 13:46:34;;;;;;;16.90;10.88;;;26.60;77.60;;;;;;1814489;77;21610;-79
2021/12/25 13:49:05;;;;;;;20.08;12.43;;;26.50;77.40;;;;;;1829116;77;21162;-79
2021/12/25 13:51:39;;;;;;;19.75;11.12;;;26.50;77.60;;;;;;1833490;77;21119;-79
2021/12/25 13:54:12;;;;;;;18.82;12.85;;;26.50;77.70;;;;;;1853387;77;21146;-78
2021/12/25 13:56:45;;;;;;;17.62;11.63;;;26.50;78.00;;;;;;1812215;77;21092;-78
2021/12/25 13:59:16;;;;;;;19.02;12.03;;;26.50;77.50;;;;;;1810945;78;21144;-77
2021/12/25 14:01:48;;;;;;;18.05;11.78;;;26.50;77.80;;;;;;1828119;78;21803;-77
2021/12/25 14:04:20;;;;;;;19.35;11.93;;;26.40;77.90;;;;;;1830509;78;21627;-77
2021/12/25 14:06:51;;;;;;;20.90;12.30;;;26.50;79.00;;;;;;1806478;79;21656;-78
2021/12/25 14:09:22;;;;;;;23.35;12.68;;;26.40;78.40;;;;;;1828502;77;21076;-77
2021/12/25 14:11:55;;;;;;;22.60;12.40;;;26.40;78.10;;;;;;1831506;78;21203;-78
2021/12/25 14:14:29;;;;;;;23.42;12.50;;;26.30;78.60;;;;;;1833591;78;21176;-79
2021/12/25 14:17:01;;;;;;;20.15;12.20;;;26.30;78.60;;;;;;1834039;77;21665;-78
2021/12/25 14:19:32;;;;;;;19.17;12.63;;;26.30;78.00;;;;;;1844249;77;21745;-78
2021/12/25 14:22:05;;;;;;;20.10;13.08;;;26.30;78.20;;;;;;1831428;77;21110;-79